Indian Harbour Beach, Florida
Current Conditions -  °F | °C
As of 12:58 AM on Thursday 29 Jan 2015 (Local Time) from KCOF Reporting Station
Clear Clear  
Wind Chill: 53°   Ceiling: Unl
Heat Index: 53°   Visibility: 10mi
Dew Point: 47°   Wind: 12mph
Humidity: 82%   Direction: 330°NNW
Pressure: 30.25"   Gusts: NA
Location:  28.1733°N, 80.598°W
Report Text: KCOF 290558Z AUTO 33010KT 10SM CLR 11/09 A3025 RMK AO2 SLP248 T01140085 10134 20112 50002 CHINO RWY02 $
Loading
Personal Weather Stations






























Interactive Weather Map New forecast layout! Learn more

10-Day Weather Forecast

Advertisements
Track Severe Weather on mobile